Terminal Aerodrome Forecast
Issued by NWS

Home | Current Version | Previous Version | Text Only | Print | Product List | Glossary On
Versions: 1 2 3 4 5 6 7 8 9 10 11 12 13 14
000
FTUS44 KMOB 042326
TAFBFM
TAF
KBFM 042326Z 0500/0524 32010KT 6SM -RA BR SCT007 BKN060 OVC090
     FM050300 34005KT 3SM -RA BR OVC009
     FM051000 36007KT 3SM -RA BR OVC007
      TEMPO 0510/0513 1SM -RA BR OVC004=

USA.gov is the U.S. government's official web portal to all federal, state and local government web resources and services.